Time;durP1;ratioP1;P1;durP2;ratioP2;P2;SDS_P1;SDS_P2;PMS_P1;PMS_P2;Temp;Humidity;BMP_temperature;BMP_pressure;BME280_temperature;BME280_humidity;BME280_pressure;Samples;Min_cycle;Max_cycle;Signal;HPM_P1;HPM_P2
2023/04/14 00:03:32;;;;;;;6.33;4.60;;;10.60;99.90;;;9.21;88.18;98764.81;10401795;28;98499;-89
2023/04/14 00:08:35;;;;;;;7.77;4.53;;;10.70;99.90;;;9.25;88.14;98736.91;10401164;28;96452;-88
2023/04/14 00:13:38;;;;;;;6.57;3.80;;;10.70;99.90;;;9.30;87.30;98742.44;10370197;28;97894;-90
2023/04/14 00:18:41;;;;;;;5.43;3.60;;;10.80;99.90;;;9.32;87.34;98727.97;10381828;28;96541;-90
2023/04/14 00:23:44;;;;;;;7.33;3.83;;;10.80;99.90;;;9.37;86.97;98709.66;10384025;28;96553;-90
2023/04/14 00:28:47;;;;;;;7.70;3.80;;;10.80;99.90;;;9.39;86.70;98712.09;10398390;28;96684;-90
2023/04/14 00:33:50;;;;;;;6.07;3.80;;;10.90;99.90;;;9.44;87.02;98706.22;10372753;28;96491;-90
2023/04/14 00:38:53;;;;;;;5.00;3.47;;;10.90;99.90;;;9.50;85.19;98692.16;10385538;28;96366;-90
2023/04/14 00:43:57;;;;;;;4.30;3.10;;;10.90;99.90;;;9.58;84.39;98700.75;10379655;28;98775;-90
2023/04/14 00:49:01;;;;;;;3.97;2.70;;;11.00;99.90;;;9.68;83.79;98705.72;10383682;28;97488;-90
2023/04/14 00:54:06;;;;;;;5.50;2.43;;;11.10;99.90;;;9.75;83.61;98703.88;10378298;28;98153;-90
2023/04/14 00:59:10;;;;;;;3.90;2.50;;;11.10;99.90;;;9.78;82.84;98684.94;10380297;28;96525;-89
2023/04/14 01:04:15;;;;;;;4.83;2.70;;;11.20;99.90;;;9.87;81.37;98685.56;10360163;28;97342;-89
2023/04/14 01:09:18;;;;;;;3.77;2.90;;;11.30;99.90;;;9.93;81.43;98687.41;10332082;28;96429;-89
2023/04/14 01:14:46;;;;;;;3.23;2.77;;;11.40;99.90;;;9.95;81.53;98676.59;10378568;28;96724;-89
2023/04/14 01:20:21;;;;;;;3.83;2.63;;;11.40;99.90;;;9.98;81.05;98673.56;10395523;27;97156;-90
2023/04/14 01:25:49;;;;;;;4.97;3.00;;;11.40;99.90;;;10.00;79.83;98664.34;10366199;28;96585;-91
2023/04/14 01:31:24;;;;;;;3.53;2.40;;;11.40;99.90;;;9.99;79.46;98661.91;10399486;28;96939;-90
2023/04/14 01:36:41;;;;;;;5.47;3.13;;;11.40;99.90;;;9.97;79.81;98627.63;10400242;28;96396;-91
2023/04/14 01:41:51;;;;;;;4.33;2.90;;;11.40;99.90;;;9.97;80.04;98635.59;10393756;27;98334;-90
2023/04/14 01:47:01;;;;;;;4.67;2.70;;;11.40;99.90;;;9.94;80.38;98617.41;10386419;27;98792;-90
2023/04/14 01:52:10;;;;;;;5.03;2.73;;;11.40;99.90;;;9.95;80.40;98613.72;10379851;28;97373;-90
2023/04/14 01:57:19;;;;;;;5.23;3.00;;;11.40;99.90;;;9.93;80.42;98592.72;10392737;27;96648;-90
2023/04/14 02:02:23;;;;;;;4.57;2.43;;;11.40;99.90;;;9.90;79.86;98598.44;10378574;28;96660;-89
2023/04/14 02:07:28;;;;;;;5.23;2.90;;;11.40;99.90;;;9.90;80.31;98597.63;10379572;28;97483;-88
2023/04/14 02:12:32;;;;;;;4.33;2.57;;;11.40;99.90;;;9.95;80.10;98604.94;10379595;28;96514;-89
2023/04/14 02:17:36;;;;;;;5.07;2.70;;;11.40;99.90;;;9.95;79.17;98594.34;10377828;28;96573;-88
2023/04/14 02:22:39;;;;;;;4.97;2.80;;;11.40;99.90;;;9.96;78.84;98586.19;10382326;28;97286;-89
2023/04/14 02:27:53;;;;;;;5.70;2.87;;;11.40;99.90;;;10.02;77.47;98573.94;10378478;28;96545;-89
2023/04/14 02:33:11;;;;;;;5.10;3.27;;;11.40;99.90;;;10.07;75.89;98558.22;10377777;27;96632;-88
2023/04/14 02:38:52;;;;;;;4.70;3.00;;;11.50;99.90;;;10.14;75.36;98567.81;10381865;28;97760;-89
2023/04/14 02:43:58;;;;;;;3.93;2.90;;;11.50;99.90;;;10.18;74.86;98574.34;10413227;28;98588;-87
2023/04/14 02:49:04;;;;;;;4.20;2.60;;;11.60;99.90;;;10.17;75.75;98588.63;10389032;28;97374;-87
2023/04/14 02:54:09;;;;;;;4.70;2.30;;;11.60;99.90;;;10.14;74.06;98572.31;10398904;27;96589;-87
2023/04/14 02:59:12;;;;;;;3.67;2.60;;;11.60;99.90;;;10.19;72.63;98576.00;10400883;28;98368;-87
2023/04/14 03:04:17;;;;;;;5.73;2.47;;;11.60;99.90;;;10.28;71.34;98576.63;10400966;28;96940;-87
2023/04/14 03:09:21;;;;;;;4.27;2.13;;;11.70;99.90;;;10.33;69.04;98565.38;10369661;28;96592;-87
2023/04/14 03:14:26;;;;;;;3.60;2.30;;;11.70;99.90;;;10.41;67.95;98552.69;10386399;28;97063;-88
2023/04/14 03:19:30;;;;;;;7.53;2.60;;;11.80;99.00;;;10.48;67.11;98546.56;10378479;28;98849;-87
2023/04/14 03:24:35;;;;;;;2.97;2.17;;;11.80;98.50;;;10.48;68.00;98557.19;10383707;27;96554;-87
2023/04/14 03:29:47;;;;;;;3.83;2.50;;;11.90;98.70;;;10.49;68.63;98558.81;10369254;28;96970;-88
2023/04/14 03:34:55;;;;;;;3.90;2.30;;;11.90;98.80;;;10.42;68.96;98532.28;10398803;28;98841;-87
2023/04/14 03:40:04;;;;;;;3.53;2.00;;;11.90;98.90;;;10.41;68.06;98531.47;10377511;28;97609;-87
2023/04/14 03:45:08;;;;;;;4.33;1.93;;;11.90;98.70;;;10.36;68.90;98517.16;10359550;28;96389;-87
2023/04/14 03:50:14;;;;;;;4.60;2.63;;;11.80;98.70;;;10.37;68.79;98506.34;10346189;27;96568;-88
2023/04/14 03:55:18;;;;;;;4.83;2.20;;;11.80;98.60;;;10.43;66.30;98496.72;10364911;28;96783;-86
2023/04/14 04:00:24;;;;;;;6.07;2.67;;;11.80;97.70;;;10.49;66.07;98505.69;10369172;27;96450;-88
2023/04/14 04:05:28;;;;;;;3.73;2.20;;;11.90;97.30;;;10.52;66.54;98553.91;10378685;28;96606;-87
2023/04/14 04:10:36;;;;;;;4.23;2.50;;;11.90;97.20;;;10.47;67.62;98604.19;10393696;28;98535;-87
2023/04/14 04:15:40;;;;;;;3.83;2.23;;;11.90;97.40;;;10.39;68.70;98578.66;10375608;27;97579;-85
2023/04/14 04:20:45;;;;;;;3.53;2.23;;;11.80;97.60;;;10.32;68.57;98569.06;10404961;27;96801;-85
2023/04/14 04:25:49;;;;;;;3.23;2.20;;;11.80;97.70;;;10.25;69.38;98550.47;10394963;27;97412;-85
2023/04/14 04:30:53;;;;;;;4.77;2.90;;;11.70;97.90;;;10.23;69.79;98571.09;10363718;27;98220;-85
2023/04/14 04:35:57;;;;;;;5.43;2.80;;;11.70;98.20;;;10.24;71.08;98556.00;10370828;28;96838;-85
2023/04/14 04:41:00;;;;;;;7.00;2.80;;;11.70;98.50;;;10.23;71.76;98541.06;10362326;27;98469;-85
2023/04/14 04:46:43;;;;;;;4.37;2.63;;;11.70;98.70;;;10.29;71.74;98532.31;10378897;27;96636;-85
2023/04/14 04:51:46;;;;;;;5.93;3.00;;;11.70;98.80;;;10.41;70.65;98526.16;10395638;28;97036;-85
2023/04/14 04:56:49;;;;;;;3.97;2.73;;;11.90;98.80;;;10.55;69.35;98523.44;10376740;27;96594;-87
2023/04/14 05:01:52;;;;;;;6.07;3.13;;;11.90;98.40;;;10.64;69.25;98536.31;10376998;28;98559;-86
2023/04/14 05:06:56;;;;;;;5.70;2.37;;;12.10;98.30;;;10.71;68.10;98546.91;10375804;27;98829;-87
2023/04/14 05:11:59;;;;;;;7.67;2.77;;;12.10;98.00;;;10.79;66.64;98556.50;10369731;28;97186;-87
2023/04/14 05:17:02;;;;;;;4.40;2.83;;;12.20;97.40;;;10.81;66.25;98557.94;10388057;27;98689;-86
2023/04/14 05:22:05;;;;;;;5.70;2.77;;;12.20;97.20;;;10.84;66.32;98575.28;10390128;27;98516;-86
2023/04/14 05:27:08;;;;;;;7.73;2.93;;;12.30;97.00;;;10.83;66.09;98568.34;10414736;28;97597;-87
2023/04/14 05:32:17;;;;;;;6.97;2.90;;;12.20;96.60;;;10.78;67.56;98570.81;10367344;28;97558;-87
2023/04/14 05:37:21;;;;;;;4.93;2.90;;;12.20;96.90;;;10.68;67.93;98557.97;10413239;28;96840;-89
2023/04/14 05:42:24;;;;;;;4.90;3.10;;;12.10;97.00;;;10.56;68.56;98543.72;10382102;28;96593;-88
2023/04/14 05:47:27;;;;;;;5.37;2.70;;;12.00;97.20;;;10.52;68.99;98551.25;10380706;28;96533;-88
2023/04/14 05:52:30;;;;;;;4.93;3.30;;;11.90;97.30;;;10.49;69.23;98551.66;10399025;27;96749;-88
2023/04/14 05:57:33;;;;;;;5.87;3.73;;;11.90;97.50;;;10.48;69.93;98558.00;10376238;28;96613;-90
2023/04/14 06:02:41;;;;;;;6.77;3.03;;;11.90;97.80;;;10.51;70.13;98567.41;10378754;28;96590;-90
2023/04/14 06:07:45;;;;;;;5.77;3.40;;;12.00;97.90;;;10.45;71.27;98558.44;10383937;28;97502;-91
2023/04/14 06:12:49;;;;;;;5.17;3.53;;;11.90;98.10;;;10.38;72.83;98554.97;10376786;28;98612;-89
2023/04/14 06:17:53;;;;;;;6.80;5.07;;;11.80;98.40;;;10.37;72.81;98542.69;10390471;28;96545;-92
2023/04/14 06:22:56;;;;;;;9.53;6.30;;;11.90;98.70;;;10.51;73.83;98539.00;10364016;27;97969;-91
2023/04/14 06:28:02;;;;;;;9.00;3.77;;;11.90;99.10;;;10.67;72.61;98543.03;10389496;27;96988;-90
2023/04/14 06:33:06;;;;;;;5.87;3.67;;;12.10;99.40;;;10.82;70.26;98538.31;10399550;27;97303;-91
2023/04/14 06:38:09;;;;;;;5.70;4.10;;;12.30;98.50;;;11.03;68.29;98531.88;10370352;28;97403;-91
2023/04/14 06:43:13;;;;;;;7.87;4.30;;;12.50;98.00;;;11.20;68.40;98525.03;10360349;28;96646;-92
2023/04/14 06:48:16;;;;;;;7.53;4.60;;;12.60;97.90;;;11.40;68.22;98521.47;10390339;27;97359;-92
2023/04/14 06:53:19;;;;;;;8.37;4.23;;;12.80;97.70;;;11.59;67.39;98523.19;10379938;28;96622;-91
2023/04/14 06:58:22;;;;;;;9.87;3.90;;;13.00;97.40;;;11.66;64.85;98507.19;10372745;28;96481;-92
2023/04/14 07:03:28;;;;;;;4.50;3.10;;;13.10;96.20;;;11.67;65.43;98506.97;10409812;28;98318;-90
2023/04/14 07:08:31;;;;;;;5.80;3.53;;;13.10;96.00;;;11.78;63.97;98511.59;10408735;27;97353;-90
2023/04/14 07:13:36;;;;;;;5.73;3.60;;;13.20;95.50;;;11.84;64.95;98509.94;10376579;27;97415;-91
2023/04/14 07:18:39;;;;;;;7.27;3.50;;;13.30;95.80;;;11.97;65.31;98515.16;10407712;28;96708;-89
2023/04/14 07:23:42;;;;;;;6.37;3.80;;;13.40;95.90;;;12.08;65.38;98505.63;10398234;27;96721;-91
2023/04/14 07:28:46;;;;;;;7.17;3.97;;;13.40;95.80;;;12.11;64.47;98493.72;10353411;28;96631;-90
2023/04/14 07:33:49;;;;;;;7.67;4.37;;;13.50;95.40;;;12.23;64.27;98487.44;10349842;27;97818;-91
2023/04/14 07:38:52;;;;;;;6.27;4.57;;;13.60;95.40;;;12.38;63.78;98484.44;10395798;27;96518;-91
2023/04/14 07:43:57;;;;;;;7.97;4.60;;;13.80;95.20;;;12.51;62.61;98478.16;10420472;27;96556;-90
2023/04/14 07:49:01;;;;;;;8.37;4.23;;;13.90;94.90;;;12.58;62.63;98486.88;10393068;28;97167;-90
2023/04/14 07:54:04;;;;;;;5.30;3.60;;;14.00;94.50;;;12.64;62.76;98482.53;10380186;28;98916;-91
2023/04/14 07:59:08;;;;;;;5.50;3.23;;;14.10;94.40;;;12.69;62.24;98474.69;10384923;28;96446;-91
2023/04/14 08:04:11;;;;;;;8.87;3.60;;;14.10;94.20;;;12.78;61.94;98474.16;10364592;28;96637;-91
2023/04/14 08:09:14;;;;;;;7.20;3.83;;;14.20;94.10;;;12.82;61.88;98479.84;10378040;28;97295;-92
2023/04/14 08:14:17;;;;;;;5.57;3.90;;;14.20;93.80;;;12.83;61.62;98482.31;10402236;28;96590;-91
2023/04/14 08:19:20;;;;;;;6.33;3.60;;;14.30;93.60;;;12.77;62.02;98495.69;10383568;28;98715;-91
2023/04/14 08:24:23;;;;;;;8.40;4.47;;;14.20;93.30;;;12.74;61.91;98502.28;10397713;28;96643;-92
2023/04/14 08:29:27;;;;;;;6.57;4.10;;;14.20;93.40;;;12.73;62.98;98502.53;10384755;28;96527;-90
2023/04/14 08:34:30;;;;;;;12.97;4.70;;;14.10;93.70;;;12.69;63.15;98490.66;10378721;27;97573;-87
2023/04/14 08:39:33;;;;;;;5.57;3.50;;;14.10;93.60;;;12.62;63.93;98484.59;10382976;27;97227;-89
2023/04/14 08:44:36;;;;;;;8.77;5.40;;;14.10;93.90;;;12.54;65.00;98470.56;10396591;27;96640;-88
2023/04/14 08:49:45;;;;;;;7.93;5.33;;;14.00;94.30;;;12.42;66.60;98479.50;10378822;28;96546;-87
2023/04/14 08:54:50;;;;;;;7.60;4.57;;;13.90;94.80;;;12.26;67.13;98478.22;10396563;27;97484;-89
2023/04/14 08:59:56;;;;;;;6.33;3.93;;;13.70;95.10;;;12.09;69.19;98485.16;10370836;28;96632;-89
2023/04/14 09:04:59;;;;;;;7.70;4.70;;;13.60;95.70;;;12.03;70.72;98500.97;10399049;28;97640;-89
2023/04/14 09:10:03;;;;;;;7.33;4.50;;;13.50;96.20;;;11.98;72.88;98523.94;10359051;28;98193;-91
2023/04/14 09:15:07;;;;;;;9.97;5.77;;;13.40;96.90;;;11.78;73.63;98513.44;10430153;27;96819;-89
2023/04/14 09:20:12;;;;;;;8.77;6.53;;;13.30;97.30;;;11.65;75.68;98518.84;10420376;27;96481;-88
2023/04/14 09:25:37;;;;;;;6.77;5.10;;;13.20;97.90;;;11.49;76.88;98523.66;10404421;27;96492;-90
2023/04/14 09:30:41;;;;;;;7.00;4.80;;;13.00;98.60;;;11.32;78.97;98527.84;10381216;27;96681;-85
2023/04/14 09:35:51;;;;;;;7.17;4.93;;;12.80;99.40;;;11.26;80.19;98536.69;10375664;27;98554;-90
2023/04/14 09:40:54;;;;;;;7.50;4.67;;;12.80;99.90;;;11.19;81.01;98551.84;10373083;27;99661;-88
2023/04/14 09:46:08;;;;;;;8.50;5.70;;;12.70;99.90;;;11.05;83.14;98535.16;10332396;28;97803;-86
2023/04/14 09:51:12;;;;;;;8.37;5.57;;;12.60;99.90;;;10.96;85.15;98547.84;10356519;28;97346;-86
2023/04/14 09:56:15;;;;;;;14.47;8.77;;;12.60;99.90;;;10.94;86.36;98547.25;10336838;28;96522;-85
2023/04/14 10:01:20;;;;;;;10.33;7.23;;;12.50;99.90;;;10.87;87.46;98546.47;10331028;28;98364;-83
2023/04/14 10:06:23;;;;;;;10.30;6.00;;;12.50;99.90;;;10.76;89.39;98536.47;10358117;28;96519;-82
2023/04/14 10:11:31;;;;;;;11.87;6.80;;;12.40;99.90;;;10.74;90.96;98525.25;10341305;28;96533;-82
2023/04/14 10:16:35;;;;;;;9.33;7.00;;;12.40;99.90;;;10.65;91.53;98503.41;10340801;28;96412;-82
2023/04/14 10:21:38;;;;;;;12.37;7.30;;;12.30;99.90;;;10.70;92.49;98514.22;10353603;28;97336;-82
2023/04/14 10:26:45;;;;;;;11.17;7.07;;;12.30;99.90;;;10.72;92.79;98521.97;10316246;28;96454;-82
2023/04/14 10:31:53;;;;;;;10.53;6.30;;;12.30;99.90;;;10.76;93.35;98523.19;10351249;28;96640;-82
2023/04/14 10:37:12;;;;;;;10.40;6.20;;;12.40;99.90;;;10.76;93.80;98527.69;10339094;28;96579;-82
2023/04/14 10:42:15;;;;;;;11.17;5.87;;;12.40;99.90;;;10.68;94.17;98523.44;10365221;28;96670;-82
2023/04/14 10:47:23;;;;;;;9.70;7.00;;;12.30;99.90;;;10.62;94.61;98527.75;10363110;28;98057;-82
2023/04/14 10:52:27;;;;;;;14.13;7.73;;;12.20;99.90;;;10.52;95.08;98530.00;10383550;28;96567;-82
2023/04/14 10:57:44;;;;;;;10.03;7.07;;;12.10;99.90;;;10.45;95.57;98524.72;10375822;28;96557;-81
2023/04/14 11:03:12;;;;;;;11.10;7.60;;;12.00;99.90;;;10.38;96.34;98521.25;10381930;27;96574;-80
2023/04/14 11:08:35;;;;;;;10.33;6.40;;;12.00;99.90;;;10.32;97.49;98508.81;10377768;28;98447;-81
2023/04/14 11:13:40;;;;;;;10.73;7.23;;;11.90;99.90;;;10.30;98.17;98508.19;10396109;28;97506;-81
2023/04/14 11:18:44;;;;;;;11.80;7.90;;;11.80;99.90;;;10.23;98.90;98515.34;10387024;28;96502;-81
2023/04/14 11:23:48;;;;;;;10.80;7.00;;;11.80;99.90;;;10.23;100.00;98507.41;10385480;28;96582;-81
2023/04/14 11:28:55;;;;;;;13.17;8.07;;;11.70;99.90;;;10.28;100.00;98496.97;10385962;28;96617;-81
2023/04/14 11:33:59;;;;;;;11.10;7.57;;;11.80;99.90;;;10.31;100.00;98501.03;10366885;28;97006;-81
2023/04/14 11:39:03;;;;;;;11.70;7.97;;;11.80;99.90;;;10.34;100.00;98497.97;10381184;28;96662;-81
2023/04/14 11:44:06;;;;;;;21.70;12.50;;;11.80;99.90;;;10.32;100.00;98495.53;10380953;27;98558;-82
2023/04/14 11:49:10;;;;;;;15.30;10.00;;;11.80;99.90;;;10.30;100.00;98500.22;10345584;27;98944;-81
2023/04/14 11:54:13;;;;;;;19.27;12.93;;;11.80;99.90;;;10.26;100.00;98501.69;10378037;27;98935;-84
2023/04/14 11:59:15;;;;;;;20.60;12.63;;;11.80;99.90;;;10.27;100.00;98494.53;10404063;27;96805;-80
2023/04/14 12:04:19;;;;;;;14.03;9.93;;;11.80;99.90;;;10.29;100.00;98498.59;10391343;28;96700;-80
2023/04/14 12:09:30;;;;;;;15.30;9.90;;;11.70;99.90;;;10.29;100.00;98487.16;10369065;28;96635;-79
2023/04/14 12:14:33;;;;;;;14.03;9.27;;;11.70;99.90;;;10.22;100.00;98484.50;10383684;28;98938;-79
2023/04/14 12:19:37;;;;;;;11.17;7.30;;;11.70;99.90;;;10.16;100.00;98487.97;10401013;28;96480;-80
2023/04/14 12:24:42;;;;;;;14.10;7.60;;;11.60;99.90;;;10.12;100.00;98468.16;10398704;28;96729;-80
2023/04/14 12:29:46;;;;;;;11.57;7.60;;;11.60;99.90;;;10.06;100.00;98474.31;10382436;28;97433;-79
2023/04/14 12:34:57;;;;;;;14.77;7.07;;;11.60;99.90;;;9.99;100.00;98469.00;10365463;28;96604;-80
2023/04/14 12:40:05;;;;;;;9.98;6.30;;;11.50;99.90;;;9.91;100.00;98469.22;10380986;28;98707;-80
2023/04/14 12:45:09;;;;;;;9.30;5.97;;;11.40;99.90;;;9.81;100.00;98471.47;10359372;28;96723;-80
2023/04/14 12:50:27;;;;;;;10.80;6.23;;;11.30;99.90;;;9.68;100.00;98453.72;10379251;28;96910;-80
2023/04/14 12:55:31;;;;;;;9.43;6.00;;;11.20;99.90;;;9.60;100.00;98438.03;10385051;28;96477;-80
2023/04/14 13:00:34;;;;;;;8.30;4.70;;;11.20;99.90;;;9.57;100.00;98426.00;10403167;28;97660;-80
2023/04/14 13:05:37;;;;;;;10.33;5.13;;;11.10;99.90;;;9.54;100.00;98438.84;10382483;28;97147;-81
2023/04/14 13:10:40;;;;;;;3.73;2.50;;;11.00;99.90;;;9.46;100.00;98469.00;10396559;28;96547;-81
2023/04/14 13:15:43;;;;;;;4.90;3.30;;;11.00;99.90;;;9.41;100.00;98486.53;10379271;27;97534;-81
2023/04/14 13:21:06;;;;;;;3.07;2.20;;;11.00;99.90;;;9.39;100.00;98489.41;10396032;28;96543;-80
2023/04/14 13:26:09;;;;;;;3.07;2.13;;;10.90;99.90;;;9.25;100.00;98495.72;10393463;28;97684;-80
2023/04/14 13:31:17;;;;;;;8.53;4.23;;;10.90;99.90;;;9.22;100.00;98499.56;10389683;28;98843;-80
2023/04/14 13:36:21;;;;;;;38.33;19.20;;;10.80;99.90;;;9.22;100.00;98509.34;10398120;28;98420;-80
2023/04/14 13:41:25;;;;;;;7.70;5.20;;;10.80;99.90;;;9.26;100.00;98522.00;10398563;28;96636;-80
2023/04/14 13:46:29;;;;;;;13.00;8.13;;;10.80;99.90;;;9.33;100.00;98537.94;10417131;28;98593;-80
2023/04/14 13:51:42;;;;;;;15.73;12.83;;;10.90;99.90;;;9.32;100.00;98531.00;10376371;28;97375;-81
2023/04/14 13:56:45;;;;;;;6.17;5.20;;;10.90;99.90;;;9.32;100.00;98525.69;10400080;28;96992;-80
2023/04/14 14:01:49;;;;;;;7.27;4.37;;;10.90;99.90;;;9.34;100.00;98526.31;10378417;28;98902;-81
2023/04/14 14:06:52;;;;;;;5.17;3.17;;;10.90;99.90;;;9.36;100.00;98534.88;10361636;28;96614;-80
2023/04/14 14:11:56;;;;;;;5.97;3.27;;;10.90;99.90;;;9.36;100.00;98514.50;10396292;28;96558;-80
2023/04/14 14:16:59;;;;;;;4.73;2.70;;;10.90;99.90;;;9.40;100.00;98528.16;10374254;28;98436;-80
2023/04/14 14:22:02;;;;;;;12.50;8.70;;;11.00;99.90;;;9.48;100.00;98546.53;10373527;28;97590;-80
2023/04/14 14:27:05;;;;;;;9.67;6.23;;;11.10;99.90;;;9.42;100.00;98543.88;10392017;28;98267;-80
2023/04/14 14:32:08;;;;;;;7.07;3.50;;;11.00;99.90;;;9.28;100.00;98553.59;10362365;28;98676;-80
2023/04/14 14:37:17;;;;;;;8.60;3.83;;;10.90;99.90;;;9.20;100.00;98551.97;10372195;28;97369;-81
2023/04/14 14:42:20;;;;;;;11.23;4.70;;;10.80;99.90;;;9.07;100.00;98573.94;10363254;28;96539;-81
2023/04/14 14:47:23;;;;;;;7.33;4.00;;;10.70;99.90;;;9.00;100.00;98580.22;10376051;28;98952;-81
2023/04/14 14:52:28;;;;;;;7.20;3.60;;;10.60;99.90;;;8.92;100.00;98583.84;10390353;27;98647;-81
2023/04/14 14:57:31;;;;;;;7.50;4.67;;;10.50;99.90;;;8.87;100.00;98577.50;10374818;28;98395;-81
2023/04/14 15:02:35;;;;;;;5.37;3.00;;;10.50;99.90;;;8.79;100.00;98592.53;10379015;28;97734;-80
2023/04/14 15:07:38;;;;;;;6.03;3.43;;;10.40;99.90;;;8.72;100.00;98602.28;10404314;28;96687;-80
2023/04/14 15:28:51;;;;;;;4.25;2.50;;;10.10;99.90;;;8.53;100.00;98643.50;10498214;27;98159;-79
2023/04/14 15:34:00;;;;;;;3.43;1.67;;;10.00;99.90;;;8.48;100.00;98639.78;10409149;27;96695;-79
2023/04/14 15:39:03;;;;;;;2.23;1.37;;;10.00;99.90;;;8.40;100.00;98637.31;10416562;27;97354;-80
2023/04/14 15:44:06;;;;;;;2.80;1.67;;;9.90;99.90;;;8.31;100.00;98632.09;10432039;27;98324;-80
2023/04/14 15:49:09;;;;;;;2.27;1.47;;;9.90;99.90;;;8.27;100.00;98645.91;10437339;27;96466;-80
2023/04/14 15:54:12;;;;;;;3.80;2.20;;;9.90;99.90;;;8.20;100.00;98647.69;10413527;27;98334;-80
2023/04/14 15:59:15;;;;;;;3.37;2.27;;;9.80;99.90;;;8.22;100.00;98646.50;10434841;27;98773;-80
2023/04/14 16:04:18;;;;;;;3.83;2.03;;;9.80;99.90;;;8.22;100.00;98651.78;10449663;27;96613;-80
2023/04/14 16:09:22;;;;;;;1.87;1.40;;;9.80;99.90;;;8.26;100.00;98665.44;10433595;27;98300;-80
2023/04/14 16:14:33;;;;;;;2.20;1.47;;;9.90;99.90;;;8.26;100.00;98679.47;10442203;27;96587;-80
2023/04/14 16:19:36;;;;;;;3.53;2.00;;;9.90;99.90;;;8.23;100.00;98695.75;10419802;27;96669;-85
2023/04/14 16:24:39;;;;;;;3.20;2.07;;;9.80;99.90;;;8.12;100.00;98687.50;10430939;27;98167;-80
2023/04/14 16:29:42;;;;;;;8.00;3.47;;;9.70;99.90;;;8.03;100.00;98684.16;10412774;27;98710;-84
2023/04/14 16:34:45;;;;;;;4.80;2.80;;;9.60;99.90;;;7.92;100.00;98696.06;10383825;27;96583;-83
2023/04/14 16:39:55;;;;;;;10.40;5.57;;;9.50;99.90;;;7.77;100.00;98701.38;10408090;27;96619;-81
2023/04/14 16:44:58;;;;;;;10.27;5.27;;;9.40;99.90;;;7.67;100.00;98705.31;10399236;27;96865;-82
2023/04/14 16:50:01;;;;;;;5.27;2.77;;;9.30;99.90;;;7.55;100.00;98725.31;10405104;28;97563;-82
2023/04/14 16:55:05;;;;;;;3.63;1.93;;;9.20;99.90;;;7.42;100.00;98729.41;10382005;27;96537;-82
2023/04/14 17:00:12;;;;;;;1.70;1.23;;;9.10;99.90;;;7.32;100.00;98743.94;10384087;28;97592;-83
2023/04/14 17:05:15;;;;;;;3.40;2.53;;;9.00;99.90;;;7.21;100.00;98753.94;10388420;28;96742;-83
2023/04/14 17:10:18;;;;;;;2.27;1.70;;;8.80;99.90;;;7.12;100.00;98765.59;10404365;27;97355;-81
2023/04/14 17:15:22;;;;;;;4.50;2.77;;;8.80;99.90;;;7.01;100.00;98758.09;10393163;27;98664;-82
2023/04/14 17:20:26;;;;;;;3.83;2.47;;;8.60;99.90;;;6.93;100.00;98766.09;10396556;27;97051;-82
2023/04/14 17:25:30;;;;;;;5.50;2.90;;;8.50;99.90;;;6.86;100.00;98766.00;10394787;27;97533;-82
2023/04/14 17:30:35;;;;;;;4.23;2.83;;;8.50;99.90;;;6.78;100.00;98767.88;10372259;27;98768;-80
2023/04/14 17:35:39;;;;;;;6.93;4.50;;;8.40;99.90;;;6.70;100.00;98764.31;10373122;27;96962;-81
2023/04/14 17:40:42;;;;;;;7.60;4.43;;;8.30;99.90;;;6.65;100.00;98774.56;10392339;28;97768;-81
2023/04/14 17:45:48;;;;;;;6.27;3.87;;;8.30;99.90;;;6.63;100.00;98781.03;10381844;27;98101;-80
2023/04/14 17:50:53;;;;;;;7.83;6.03;;;8.20;99.90;;;6.59;100.00;98791.13;10417008;27;98203;-80
2023/04/14 17:55:56;;;;;;;7.90;5.40;;;8.20;99.90;;;6.57;100.00;98805.50;10401156;27;98022;-81
2023/04/14 18:01:02;;;;;;;10.13;7.20;;;8.20;99.90;;;6.57;100.00;98814.25;10381032;27;97171;-81
2023/04/14 18:06:05;;;;;;;7.40;4.93;;;8.20;99.90;;;6.57;100.00;98829.25;10396873;27;97459;-78
2023/04/14 18:11:09;;;;;;;12.60;7.13;;;8.20;99.90;;;6.51;100.00;98841.34;10394614;27;98870;-80
2023/04/14 18:16:12;;;;;;;6.37;3.93;;;8.10;99.90;;;6.41;100.00;98857.38;10376164;28;97410;-81
2023/04/14 18:21:15;;;;;;;3.50;2.70;;;8.10;99.90;;;6.35;100.00;98873.09;10401741;27;96684;-80
2023/04/14 18:26:18;;;;;;;4.27;2.80;;;8.00;99.90;;;6.25;100.00;98889.16;10384923;28;97751;-80
2023/04/14 18:31:24;;;;;;;5.10;3.40;;;7.90;99.90;;;6.17;100.00;98895.25;10396574;28;96538;-79
2023/04/14 18:36:27;;;;;;;2.83;2.17;;;7.80;99.90;;;6.07;100.00;98897.31;10379571;27;98271;-80
2023/04/14 18:41:31;;;;;;;6.27;2.57;;;7.70;99.90;;;5.99;100.00;98902.59;10358313;27;98282;-79
2023/04/14 18:46:36;;;;;;;3.27;2.10;;;7.70;99.90;;;5.89;100.00;98902.78;10390630;27;96647;-80
2023/04/14 18:51:40;;;;;;;2.83;1.97;;;7.60;99.90;;;5.78;100.00;98900.50;10401636;28;96644;-79
2023/04/14 18:56:43;;;;;;;3.10;2.10;;;7.50;99.90;;;5.67;100.00;98910.56;10400230;28;96622;-90
2023/04/14 19:01:46;;;;;;;4.20;2.17;;;7.30;99.90;;;5.57;100.00;98910.72;10396558;28;96715;-90
2023/04/14 19:06:49;;;;;;;4.63;2.60;;;7.30;99.90;;;5.45;100.00;98918.16;10388839;28;96601;-91
2023/04/14 19:11:52;;;;;;;9.10;3.40;;;7.20;99.90;;;5.32;100.00;98918.66;10399786;27;97137;-91
2023/04/14 19:16:56;;;;;;;5.60;2.97;;;7.00;99.90;;;5.21;100.00;98908.47;10367766;27;96669;-91
2023/04/14 19:21:59;;;;;;;5.00;2.70;;;6.90;99.90;;;5.12;100.00;98921.81;10393186;27;96539;-90
2023/04/14 19:27:03;;;;;;;3.90;2.40;;;6.80;99.90;;;5.00;100.00;98926.56;10384528;28;96571;-90
2023/04/14 19:32:06;;;;;;;4.53;2.60;;;6.70;99.90;;;4.92;100.00;98942.34;10398354;27;96720;-85
2023/04/14 19:37:10;;;;;;;5.63;3.00;;;6.60;99.90;;;4.79;100.00;98950.69;10421236;27;98793;-88
2023/04/14 19:42:13;;;;;;;9.07;5.87;;;6.60;99.90;;;4.70;100.00;98970.94;10407174;28;96739;-88
2023/04/14 19:47:16;;;;;;;11.30;5.20;;;6.50;99.90;;;4.72;100.00;98990.00;10389915;27;97514;-85
2023/04/14 19:52:20;;;;;;;8.47;5.53;;;6.40;99.90;;;4.73;100.00;98990.81;10414110;27;96589;-87
2023/04/14 19:57:25;;;;;;;6.67;4.50;;;6.40;99.90;;;4.75;100.00;98994.13;10370709;27;98039;-86
2023/04/14 20:02:28;;;;;;;10.77;6.13;;;6.50;99.90;;;4.76;100.00;99007.13;10402693;27;96503;-86
2023/04/14 20:07:32;;;;;;;8.63;5.07;;;6.50;99.90;;;4.82;100.00;99010.94;10406793;28;97460;-85
2023/04/14 20:12:35;;;;;;;3.17;2.33;;;6.50;99.90;;;4.84;100.00;99006.31;10373590;27;96592;-87
2023/04/14 20:17:38;;;;;;;2.10;1.50;;;6.60;99.90;;;4.84;100.00;99011.59;10377579;28;97314;-84
2023/04/14 20:22:41;;;;;;;3.47;2.20;;;6.60;99.90;;;4.84;100.00;99006.31;10408200;28;96539;-86
2023/04/14 20:27:44;;;;;;;2.97;1.97;;;6.60;99.90;;;4.79;100.00;98998.91;10406128;28;96617;-87
2023/04/14 20:32:47;;;;;;;5.53;2.00;;;6.60;99.90;;;4.78;100.00;98999.88;10366102;27;98246;-86
2023/04/14 20:37:50;;;;;;;3.77;2.53;;;6.50;99.90;;;4.72;100.00;98997.91;10401432;27;96565;-87
2023/04/14 20:42:54;;;;;;;3.70;2.37;;;6.50;99.90;;;4.65;100.00;98993.44;10400617;28;96578;-87
2023/04/14 20:47:57;;;;;;;5.03;2.60;;;6.40;99.90;;;4.54;100.00;99005.06;10380455;27;97192;-87
2023/04/14 20:53:00;;;;;;;4.70;3.03;;;6.30;99.90;;;4.44;100.00;99015.72;10391751;27;96568;-87
2023/04/14 20:58:04;;;;;;;4.23;2.60;;;6.30;99.90;;;4.33;100.00;99029.16;10400787;28;98205;-87
2023/04/14 21:03:08;;;;;;;5.53;3.20;;;6.20;99.90;;;4.27;100.00;99032.41;10381982;28;98546;-87
2023/04/14 21:08:12;;;;;;;6.70;4.37;;;6.10;99.90;;;4.18;100.00;99035.97;10400120;27;96727;-85
2023/04/14 21:13:16;;;;;;;9.23;5.30;;;6.00;99.90;;;4.10;100.00;99030.66;10367598;27;96499;-87
2023/04/14 21:18:39;;;;;;;6.83;4.37;;;5.90;99.90;;;3.99;100.00;99045.69;10424029;27;96515;-86
2023/04/14 21:23:41;;;;;;;7.53;5.20;;;5.80;99.90;;;3.91;100.00;99040.41;10404453;27;96584;-87
2023/04/14 21:28:45;;;;;;;17.50;6.53;;;5.70;99.90;;;3.76;100.00;99023.53;10371826;28;96573;-87